createdAt,value
2019-01-27T00:00:04.265Z,0.89
2019-01-27T00:01:04.248Z,0.94
2019-01-27T00:02:04.254Z,0.92
2019-01-27T00:03:04.237Z,0.90
2019-01-27T00:04:04.230Z,0.93
2019-01-27T00:05:04.208Z,0.84
2019-01-27T00:06:04.198Z,0.89
2019-01-27T00:07:04.196Z,0.84
2019-01-27T00:08:04.179Z,0.82
2019-01-27T00:09:04.164Z,0.93
2019-01-27T00:10:04.173Z,0.74
2019-01-27T00:11:04.147Z,0.86
2019-01-27T00:12:04.147Z,0.79
2019-01-27T00:13:04.128Z,0.79
2019-01-27T00:14:04.115Z,0.82
2019-01-27T00:15:04.111Z,0.92
2019-01-27T00:16:04.111Z,0.81
2019-01-27T00:17:04.086Z,0.84
2019-01-27T00:18:04.072Z,0.89
2019-01-27T00:19:04.073Z,0.82
2019-01-27T00:20:04.057Z,0.74
2019-01-27T00:21:04.035Z,0.90
2019-01-27T00:22:04.061Z,0.85
2019-01-27T00:23:04.023Z,0.90
2019-01-27T00:24:04.011Z,0.78
2019-01-27T00:25:03.997Z,0.90
2019-01-27T00:26:04.013Z,0.99
2019-01-27T00:27:03.972Z,0.82
2019-01-27T00:28:03.978Z,0.93
2019-01-27T00:29:03.956Z,0.93
2019-01-27T00:30:03.951Z,0.92
2019-01-27T00:31:03.941Z,0.94
2019-01-27T00:32:03.927Z,0.86
2019-01-27T00:33:03.917Z,0.94
2019-01-27T00:34:03.926Z,0.93
2019-01-27T00:35:03.892Z,0.93
2019-01-27T00:36:03.885Z,0.93
2019-01-27T00:37:03.872Z,1.07
2019-01-27T00:38:03.866Z,1.08
2019-01-27T00:39:03.853Z,1.07
2019-01-27T00:40:03.851Z,1.00
2019-01-27T00:41:03.836Z,0.93
2019-01-27T00:42:03.820Z,0.96
2019-01-27T00:43:03.804Z,1.00
2019-01-27T00:44:03.801Z,0.93
2019-01-27T00:45:03.782Z,1.00
2019-01-27T00:46:03.793Z,0.94
2019-01-27T00:47:03.769Z,0.94
2019-01-27T00:48:03.765Z,0.97
2019-01-27T00:49:03.749Z,0.94
2019-01-27T00:50:03.752Z,0.94
2019-01-27T00:51:03.724Z,0.92
2019-01-27T00:52:03.739Z,0.94
2019-01-27T00:53:03.707Z,0.86
2019-01-27T00:54:03.695Z,0.94
2019-01-27T00:55:03.690Z,0.96
2019-01-27T00:56:03.682Z,0.92
2019-01-27T00:57:03.673Z,0.97
2019-01-27T00:58:03.669Z,0.93
2019-01-27T00:59:03.644Z,0.96
2019-01-27T01:00:03.635Z,1.08
2019-01-27T01:01:03.623Z,1.03
2019-01-27T01:02:03.733Z,0.93
2019-01-27T01:03:03.607Z,0.96
2019-01-27T01:04:03.607Z,0.92
2019-01-27T01:05:03.584Z,1.02
2019-01-27T01:06:03.571Z,1.04
2019-01-27T01:07:03.568Z,0.97
2019-01-27T01:08:03.565Z,0.96
2019-01-27T01:09:03.533Z,1.07
2019-01-27T01:10:03.551Z,1.07
2019-01-27T01:11:03.520Z,0.93
2019-01-27T01:12:03.517Z,0.97
2019-01-27T01:13:03.498Z,0.92
2019-01-27T01:14:03.488Z,0.94
2019-01-27T01:15:03.476Z,0.96
2019-01-27T01:16:03.479Z,0.89
2019-01-27T01:17:03.459Z,0.92
2019-01-27T01:18:03.447Z,0.90
2019-01-27T01:19:03.436Z,0.92
2019-01-27T01:20:03.423Z,0.86
2019-01-27T01:21:03.413Z,0.89
2019-01-27T01:22:03.426Z,0.92
2019-01-27T01:23:03.403Z,0.94
2019-01-27T01:24:03.383Z,1.07
2019-01-27T01:25:03.372Z,1.03
2019-01-27T01:26:03.362Z,1.07
2019-01-27T01:27:03.353Z,1.03
2019-01-27T01:28:03.356Z,1.04
2019-01-27T01:29:03.331Z,1.03
2019-01-27T01:30:03.337Z,0.97
2019-01-27T01:31:03.311Z,0.96
2019-01-27T01:32:03.292Z,0.92
2019-01-27T01:33:03.292Z,0.97
2019-01-27T01:34:03.289Z,0.93
2019-01-27T01:35:03.267Z,0.94
2019-01-27T01:36:03.261Z,0.99
2019-01-27T01:37:03.256Z,1.10
2019-01-27T01:38:03.236Z,0.99
2019-01-27T01:39:03.230Z,1.11
2019-01-27T01:40:03.224Z,1.02
2019-01-27T01:41:03.198Z,1.03
2019-01-27T01:42:03.217Z,1.07
2019-01-27T01:43:03.183Z,1.02
2019-01-27T01:44:03.169Z,1.04
2019-01-27T01:45:03.175Z,1.04
2019-01-27T01:46:03.217Z,1.03
2019-01-27T01:47:03.140Z,1.04
2019-01-27T01:48:03.162Z,1.08
2019-01-27T01:49:03.124Z,1.03
2019-01-27T01:50:03.112Z,1.07
2019-01-27T01:51:03.102Z,1.02
2019-01-27T01:52:03.122Z,1.08
2019-01-27T01:53:03.071Z,1.04
2019-01-27T01:54:03.061Z,1.07
2019-01-27T01:55:03.061Z,1.10
2019-01-27T01:56:03.044Z,1.20
2019-01-27T01:57:03.041Z,1.21
2019-01-27T01:58:03.044Z,1.28
2019-01-27T01:59:03.012Z,1.28
2019-01-27T02:00:03.002Z,1.28
2019-01-27T02:01:03.008Z,1.36
2019-01-27T02:02:03.118Z,1.33
2019-01-27T02:03:02.970Z,1.36
2019-01-27T02:04:02.982Z,1.40
2019-01-27T02:05:02.948Z,1.40
2019-01-27T02:06:02.945Z,1.36
2019-01-27T02:07:02.932Z,1.46
2019-01-27T02:08:02.916Z,1.47
2019-01-27T02:09:02.922Z,1.42
2019-01-27T02:10:02.919Z,1.42
2019-01-27T02:11:02.893Z,1.35
2019-01-27T02:12:02.877Z,1.40
2019-01-27T02:13:02.875Z,1.36
2019-01-27T02:14:02.864Z,1.32
2019-01-27T02:15:02.843Z,1.29
2019-01-27T02:16:02.849Z,1.26
2019-01-27T02:17:02.826Z,1.28
2019-01-27T02:18:02.816Z,1.30
2019-01-27T02:19:02.806Z,1.39
2019-01-27T02:20:02.794Z,1.36
2019-01-27T02:21:02.790Z,1.39
2019-01-27T02:22:02.813Z,1.38
2019-01-27T02:23:02.771Z,1.54
2019-01-27T02:24:02.749Z,1.58
2019-01-27T02:25:02.746Z,1.53
2019-01-27T02:26:02.724Z,1.64
2019-01-27T02:27:02.729Z,1.66
2019-01-27T02:28:02.736Z,1.61
2019-01-27T02:29:02.699Z,1.58
2019-01-27T02:30:02.687Z,1.48
2019-01-27T02:31:02.685Z,1.60
2019-01-27T02:32:02.671Z,1.48
2019-01-27T02:33:02.662Z,1.44
2019-01-27T02:34:02.666Z,1.40
2019-01-27T02:35:02.633Z,1.42
2019-01-27T02:36:02.625Z,1.51
2019-01-27T02:37:02.616Z,1.54
2019-01-27T02:38:02.601Z,1.46
2019-01-27T02:39:02.600Z,1.40
2019-01-27T02:40:02.604Z,1.38
2019-01-27T02:41:02.574Z,1.38
2019-01-27T02:42:02.563Z,1.50
2019-01-27T02:43:02.555Z,1.57
2019-01-27T02:44:02.568Z,1.58
2019-01-27T02:45:02.534Z,1.54
2019-01-27T02:46:02.539Z,1.54
2019-01-27T02:47:02.507Z,1.48
2019-01-27T02:48:02.511Z,1.60
2019-01-27T02:49:02.494Z,1.56
2019-01-27T02:50:02.479Z,1.54
2019-01-27T02:51:02.472Z,1.56
2019-01-27T02:52:02.503Z,1.50
2019-01-27T02:53:02.443Z,1.51
2019-01-27T02:54:02.441Z,1.48
2019-01-27T02:55:02.441Z,1.56
2019-01-27T02:56:02.422Z,1.51
2019-01-27T02:57:02.407Z,1.51
2019-01-27T02:58:02.412Z,1.50
2019-01-27T02:59:02.384Z,1.51
2019-01-27T03:00:02.372Z,1.56
2019-01-27T03:01:02.366Z,1.54
2019-01-27T03:02:02.355Z,1.51
2019-01-27T03:03:02.351Z,1.51
2019-01-27T03:04:02.363Z,1.38
2019-01-27T03:05:02.323Z,1.40
2019-01-27T03:06:02.351Z,1.39
2019-01-27T03:07:02.300Z,1.40
2019-01-27T03:08:02.297Z,1.35
2019-01-27T03:09:02.282Z,1.35
2019-01-27T03:10:02.304Z,1.36
2019-01-27T03:11:02.262Z,1.39
2019-01-27T03:12:02.252Z,1.40
2019-01-27T03:13:02.243Z,1.46
2019-01-27T03:14:02.280Z,1.44
2019-01-27T03:15:02.217Z,1.53
2019-01-27T03:16:02.224Z,1.53
2019-01-27T03:17:02.202Z,1.50
2019-01-27T03:18:02.192Z,1.51
2019-01-27T03:19:02.178Z,1.51
2019-01-27T03:20:02.170Z,1.50
2019-01-27T03:21:02.150Z,1.48
2019-01-27T03:22:02.239Z,1.48
2019-01-27T03:23:02.141Z,1.47
2019-01-27T03:24:02.128Z,1.51
2019-01-27T03:25:02.118Z,1.65
2019-01-27T03:26:02.099Z,1.57
2019-01-27T03:27:02.099Z,1.68
2019-01-27T03:28:02.101Z,1.61
2019-01-27T03:29:02.080Z,1.58
2019-01-27T03:30:02.071Z,1.69
2019-01-27T03:31:02.065Z,1.71
2019-01-27T03:32:02.041Z,1.75
2019-01-27T03:33:02.034Z,1.76
2019-01-27T03:34:02.039Z,1.76
2019-01-27T03:35:02.018Z,1.84
2019-01-27T03:36:02.001Z,1.72
2019-01-27T03:37:01.983Z,1.84
2019-01-27T03:38:01.984Z,1.84
2019-01-27T03:39:01.964Z,1.78
2019-01-27T03:40:02.021Z,1.75
2019-01-27T03:41:01.948Z,1.83
2019-01-27T03:42:01.948Z,1.92
2019-01-27T03:43:01.927Z,1.89
2019-01-27T03:44:01.915Z,1.84
2019-01-27T03:45:01.902Z,1.83
2019-01-27T03:46:01.910Z,1.78
2019-01-27T03:47:01.891Z,1.74
2019-01-27T03:48:01.884Z,1.65
2019-01-27T03:49:01.863Z,1.68
2019-01-27T03:50:01.846Z,1.66
2019-01-27T03:51:01.847Z,1.61
2019-01-27T03:52:01.948Z,1.61
2019-01-27T03:53:01.821Z,1.61
2019-01-27T03:54:02.624Z,1.60
2019-01-27T03:55:01.804Z,1.64
2019-01-27T03:56:01.789Z,1.56
2019-01-27T03:57:01.788Z,1.65
2019-01-27T03:58:01.786Z,1.66
2019-01-27T03:59:01.764Z,1.58
2019-01-27T04:00:01.754Z,1.65
2019-01-27T04:01:01.741Z,1.64
2019-01-27T04:02:01.726Z,1.64
2019-01-27T04:03:01.713Z,1.61
2019-01-27T04:04:01.726Z,1.64
2019-01-27T04:05:01.709Z,1.60
2019-01-27T04:06:01.693Z,1.48
2019-01-27T04:07:01.675Z,1.51
2019-01-27T04:08:01.670Z,1.56
2019-01-27T04:09:01.661Z,1.57
2019-01-27T04:10:01.675Z,1.58
2019-01-27T04:11:01.637Z,1.64
2019-01-27T04:12:01.640Z,1.56
2019-01-27T04:13:01.658Z,1.57
2019-01-27T04:14:01.604Z,1.58
2019-01-27T04:15:01.591Z,1.65
2019-01-27T04:16:01.601Z,1.61
2019-01-27T04:17:01.575Z,1.57
2019-01-27T04:18:01.566Z,1.61
2019-01-27T04:19:01.549Z,1.61
2019-01-27T04:20:01.545Z,1.58
2019-01-27T04:21:01.544Z,1.65
2019-01-27T04:22:01.623Z,1.61
2019-01-27T04:23:01.511Z,1.61
2019-01-27T04:24:01.505Z,1.66
2019-01-27T04:25:01.513Z,1.75
2019-01-27T04:26:01.483Z,1.79
2019-01-27T04:27:01.471Z,1.93
2019-01-27T04:28:01.482Z,2.02
2019-01-27T04:29:01.459Z,1.90
2019-01-27T04:30:01.438Z,1.98
2019-01-27T04:31:01.438Z,1.90
2019-01-27T04:32:01.419Z,1.90
2019-01-27T04:33:01.406Z,1.89
2019-01-27T04:34:01.407Z,1.90
2019-01-27T04:35:01.390Z,1.79
2019-01-27T04:36:01.385Z,1.89
2019-01-27T04:37:01.374Z,1.83
2019-01-27T04:38:01.364Z,1.87
2019-01-27T04:39:01.342Z,1.74
2019-01-27T04:40:01.381Z,1.76
2019-01-27T04:41:01.326Z,1.75
2019-01-27T04:42:01.323Z,1.89
2019-01-27T04:43:01.303Z,1.93
2019-01-27T04:44:01.299Z,2.04
2019-01-27T04:45:01.286Z,2.08
2019-01-27T04:46:01.296Z,2.11
2019-01-27T04:47:01.272Z,2.20
2019-01-27T04:48:01.251Z,2.27
2019-01-27T04:49:01.242Z,2.33
2019-01-27T04:50:01.235Z,2.30
2019-01-27T04:51:01.222Z,2.41
2019-01-27T04:52:01.317Z,2.31
2019-01-27T04:53:01.203Z,2.38
2019-01-27T04:54:01.188Z,2.41
2019-01-27T04:55:01.199Z,2.44
2019-01-27T04:56:01.201Z,2.44
2019-01-27T04:57:01.157Z,2.55
2019-01-27T04:58:01.184Z,2.60
2019-01-27T04:59:01.143Z,2.60
2019-01-27T05:00:01.147Z,2.55
2019-01-27T05:01:01.118Z,2.42
2019-01-27T05:02:01.108Z,2.34
2019-01-27T05:03:01.095Z,2.41
2019-01-27T05:04:01.102Z,2.42
2019-01-27T05:05:01.080Z,2.36
2019-01-27T05:06:01.068Z,2.30
2019-01-27T05:07:01.071Z,2.40
2019-01-27T05:08:09.129Z,2.42
2019-01-27T05:09:01.042Z,2.30
2019-01-27T05:10:01.093Z,2.41
2019-01-27T05:11:01.060Z,2.49
2019-01-27T05:12:01.020Z,2.45
2019-01-27T05:13:00.999Z,2.41
2019-01-27T05:14:01.004Z,2.45
2019-01-27T05:15:00.978Z,2.40
2019-01-27T05:16:00.980Z,2.44
2019-01-27T05:17:00.959Z,2.45
2019-01-27T05:18:00.939Z,2.45
2019-01-27T05:19:00.929Z,2.44
2019-01-27T05:20:00.926Z,2.45
2019-01-27T05:21:00.914Z,2.30
2019-01-27T05:22:00.923Z,2.33
2019-01-27T05:23:00.895Z,2.36
2019-01-27T05:24:00.880Z,2.34
2019-01-27T05:25:00.926Z,2.30
2019-01-27T05:26:00.858Z,2.34
2019-01-27T05:27:00.851Z,2.30
2019-01-27T05:28:00.851Z,2.33
2019-01-27T05:29:00.825Z,2.27
2019-01-27T05:30:00.812Z,2.31
2019-01-27T05:31:00.803Z,2.22
2019-01-27T05:32:00.801Z,2.22
2019-01-27T05:33:00.787Z,2.22
2019-01-27T05:34:00.793Z,2.24
2019-01-27T05:35:00.765Z,2.26
2019-01-27T05:36:00.755Z,2.22
2019-01-27T05:37:00.745Z,2.29
2019-01-27T05:38:00.735Z,2.29
2019-01-27T05:39:00.725Z,2.31
2019-01-27T05:40:00.739Z,2.29
2019-01-27T05:41:00.697Z,2.33
2019-01-27T05:42:00.687Z,2.41
2019-01-27T05:43:00.704Z,2.29
2019-01-27T05:44:00.671Z,2.41
2019-01-27T05:45:00.730Z,2.34
2019-01-27T05:46:00.669Z,2.41
2019-01-27T05:47:00.656Z,2.38
2019-01-27T05:48:00.630Z,2.33
2019-01-27T05:49:00.621Z,2.34
2019-01-27T05:50:00.607Z,2.33
2019-01-27T05:51:00.597Z,2.45
2019-01-27T05:52:00.616Z,2.40
2019-01-27T05:53:00.572Z,2.45
2019-01-27T05:54:00.890Z,2.45
2019-01-27T05:55:00.571Z,2.62
2019-01-27T05:56:00.580Z,2.54
2019-01-27T05:57:00.551Z,2.55
2019-01-27T05:58:00.540Z,2.65
2019-01-27T05:59:00.510Z,2.65
2019-01-27T06:00:00.501Z,2.76
2019-01-27T06:01:00.494Z,2.70
2019-01-27T06:02:00.485Z,2.72
2019-01-27T06:03:00.469Z,2.72
2019-01-27T06:04:00.472Z,2.78
2019-01-27T06:05:00.450Z,2.70
2019-01-27T06:06:00.462Z,2.80
2019-01-27T06:07:00.428Z,2.77
2019-01-27T06:08:00.424Z,2.81
2019-01-27T06:09:00.421Z,2.73
2019-01-27T06:10:00.412Z,2.81
2019-01-27T06:11:00.379Z,2.77
2019-01-27T06:12:00.376Z,2.80
2019-01-27T06:13:00.357Z,2.78
2019-01-27T06:14:00.351Z,2.81
2019-01-27T06:15:00.339Z,2.80
2019-01-27T06:16:00.346Z,2.81
2019-01-27T06:17:00.328Z,2.80
2019-01-27T06:18:00.312Z,2.76
2019-01-27T06:19:00.303Z,2.77
2019-01-27T06:20:00.297Z,2.66
2019-01-27T06:21:00.280Z,2.67
2019-01-27T06:22:00.289Z,2.67
2019-01-27T06:23:00.258Z,2.76
2019-01-27T06:24:00.257Z,2.70
2019-01-27T06:25:00.282Z,2.77
2019-01-27T06:26:00.235Z,2.80
2019-01-27T06:27:00.222Z,2.76
2019-01-27T06:28:00.305Z,2.83
2019-01-27T06:29:00.189Z,2.80
2019-01-27T06:30:00.213Z,2.76
2019-01-27T06:31:00.172Z,2.87
2019-01-27T06:32:00.158Z,2.87
2019-01-27T06:33:00.147Z,2.91
2019-01-27T06:34:00.394Z,2.83
2019-01-27T06:35:00.192Z,2.85
2019-01-27T06:36:00.125Z,2.77
2019-01-27T06:37:00.108Z,2.83
2019-01-27T06:38:00.173Z,2.87
2019-01-27T06:39:00.091Z,2.78
2019-01-27T06:40:00.122Z,2.84
2019-01-27T06:41:00.067Z,2.88
2019-01-27T06:42:00.054Z,2.87
2019-01-27T06:43:00.044Z,2.90
2019-01-27T06:44:00.079Z,2.87
2019-01-27T06:45:00.026Z,2.95
2019-01-27T06:46:00.029Z,2.95
2019-01-27T06:47:00.005Z,2.91
2019-01-27T06:47:59.985Z,2.88
2019-01-27T06:49:00.000Z,2.88
2019-01-27T06:49:59.978Z,2.90
2019-01-27T06:50:59.956Z,2.90
2019-01-27T06:51:59.968Z,2.90
2019-01-27T06:52:59.960Z,2.84
2019-01-27T06:53:59.946Z,2.91
2019-01-27T06:54:59.927Z,2.84
2019-01-27T06:55:59.902Z,2.91
2019-01-27T06:56:59.958Z,2.78
2019-01-27T06:57:59.943Z,2.83
2019-01-27T06:58:59.880Z,2.80
2019-01-27T06:59:59.866Z,2.78
2019-01-27T07:00:59.850Z,2.69
2019-01-27T07:01:59.851Z,2.76
2019-01-27T07:02:59.837Z,2.76
2019-01-27T07:03:59.866Z,2.73
2019-01-27T07:04:59.816Z,2.70
2019-01-27T07:05:59.803Z,2.67
2019-01-27T07:06:59.805Z,2.85
2019-01-27T07:07:59.794Z,2.93
2019-01-27T07:08:59.770Z,2.98
2019-01-27T07:09:59.783Z,2.84
2019-01-27T07:10:59.751Z,2.85
2019-01-27T07:11:59.736Z,2.87
2019-01-27T07:12:59.739Z,2.87
2019-01-27T07:13:59.713Z,2.77
2019-01-27T07:14:59.703Z,2.73
2019-01-27T07:15:59.815Z,2.85
2019-01-27T07:16:59.695Z,2.85
2019-01-27T07:17:59.679Z,2.85
2019-01-27T07:18:59.672Z,2.85
2019-01-27T07:19:59.663Z,2.80
2019-01-27T07:20:59.669Z,2.83
2019-01-27T07:22:01.307Z,2.76
2019-01-27T07:22:59.620Z,2.83
2019-01-27T07:23:59.608Z,2.85
2019-01-27T07:24:59.594Z,2.78
2019-01-27T07:25:59.588Z,2.76
2019-01-27T07:26:59.639Z,2.76
2019-01-27T07:27:59.607Z,2.78
2019-01-27T07:28:59.556Z,2.85
2019-01-27T07:29:59.547Z,2.85
2019-01-27T07:30:59.534Z,2.78
2019-01-27T07:31:59.524Z,2.84
2019-01-27T07:32:59.514Z,2.90
2019-01-27T07:33:59.648Z,2.88
2019-01-27T07:34:59.492Z,2.87
2019-01-27T07:35:59.480Z,2.83
2019-01-27T07:36:59.466Z,2.78
2019-01-27T07:37:59.458Z,2.83
2019-01-27T07:38:59.450Z,2.83
2019-01-27T07:39:59.543Z,2.80
2019-01-27T07:40:59.429Z,2.85
2019-01-27T07:41:59.450Z,2.91
2019-01-27T07:42:59.406Z,2.93
2019-01-27T07:43:59.394Z,2.90
2019-01-27T07:44:59.387Z,2.85
2019-01-27T07:45:59.400Z,2.88
2019-01-27T07:46:59.362Z,2.88
2019-01-27T07:47:59.355Z,2.88
2019-01-27T07:48:59.345Z,2.90
2019-01-27T07:49:59.333Z,2.85
2019-01-27T07:50:59.338Z,2.95
2019-01-27T07:51:59.334Z,2.83
2019-01-27T07:52:59.298Z,2.95
2019-01-27T07:53:59.291Z,2.95
2019-01-27T07:54:59.282Z,3.03
2019-01-27T07:55:59.272Z,3.19
2019-01-27T07:56:59.259Z,3.30
2019-01-27T07:57:59.282Z,3.40
2019-01-27T07:58:59.263Z,3.64
2019-01-27T07:59:59.225Z,3.78
2019-01-27T08:00:59.233Z,4.07
2019-01-27T08:01:59.206Z,4.15
2019-01-27T08:02:59.193Z,4.26
2019-01-27T08:03:59.202Z,4.58
2019-01-27T08:04:59.176Z,4.69
2019-01-27T08:05:59.164Z,4.97
2019-01-27T08:06:59.154Z,5.08
2019-01-27T08:07:59.141Z,5.08
2019-01-27T08:08:59.133Z,5.21
2019-01-27T08:09:59.135Z,5.24
2019-01-27T08:10:59.110Z,5.28
2019-01-27T08:11:59.101Z,5.34
2019-01-27T08:12:59.087Z,5.45
2019-01-27T08:13:59.080Z,5.51
2019-01-27T08:14:59.068Z,5.41
2019-01-27T08:15:59.071Z,5.45
2019-01-27T08:16:59.050Z,5.45
2019-01-27T08:17:59.038Z,5.57
2019-01-27T08:18:59.032Z,5.52
2019-01-27T08:19:59.020Z,5.57
2019-01-27T08:20:59.009Z,5.54
2019-01-27T08:21:59.015Z,5.62
2019-01-27T08:22:58.987Z,5.73
2019-01-27T08:23:58.995Z,5.77
2019-01-27T08:24:58.964Z,5.88
2019-01-27T08:25:58.956Z,6.05
2019-01-27T08:26:58.945Z,6.09
2019-01-27T08:27:59.065Z,6.13
2019-01-27T08:28:58.920Z,6.14
2019-01-27T08:29:58.919Z,6.15
2019-01-27T08:30:58.900Z,6.15
2019-01-27T08:31:58.899Z,6.31
2019-01-27T08:32:58.901Z,6.36
2019-01-27T08:33:58.879Z,6.44
2019-01-27T08:34:58.881Z,6.43
2019-01-27T08:35:58.867Z,6.39
2019-01-27T08:36:58.889Z,6.44
2019-01-27T08:37:58.826Z,6.61
2019-01-27T08:38:58.816Z,6.76
2019-01-27T08:39:58.824Z,6.78
2019-01-27T08:40:58.790Z,6.73
2019-01-27T08:41:58.787Z,6.76
2019-01-27T08:42:58.776Z,6.90
2019-01-27T08:43:58.768Z,6.94
2019-01-27T08:44:58.840Z,7.08
2019-01-27T08:45:58.756Z,8.07
2019-01-27T08:46:58.726Z,8.72
2019-01-27T08:47:58.713Z,9.60
2019-01-27T08:48:58.714Z,9.74
2019-01-27T08:49:58.704Z,10.58
2019-01-27T08:50:58.687Z,11.35
2019-01-27T08:51:58.693Z,12.05
2019-01-27T08:52:58.669Z,12.03
2019-01-27T08:53:58.655Z,11.89
2019-01-27T08:54:58.693Z,11.45
2019-01-27T08:55:58.633Z,10.76
2019-01-27T08:56:58.652Z,10.26
2019-01-27T08:57:58.629Z,10.11
2019-01-27T08:58:58.603Z,10.33
2019-01-27T08:59:58.590Z,9.78
2019-01-27T09:00:58.577Z,9.30
2019-01-27T09:01:58.572Z,9.04
2019-01-27T09:02:58.561Z,8.89
2019-01-27T09:03:58.558Z,8.90
2019-01-27T09:04:58.573Z,8.79
2019-01-27T09:05:58.526Z,8.68
2019-01-27T09:06:58.514Z,8.61
2019-01-27T09:07:58.512Z,8.53
2019-01-27T09:08:58.497Z,8.34
2019-01-27T09:09:58.504Z,8.39
2019-01-27T09:10:58.475Z,8.53
2019-01-27T09:11:58.474Z,8.89
2019-01-27T09:12:58.457Z,9.20
2019-01-27T09:13:58.452Z,9.53
2019-01-27T09:14:58.439Z,10.20
2019-01-27T09:15:58.643Z,10.18
2019-01-27T09:16:58.411Z,10.35
2019-01-27T09:17:58.410Z,10.26
2019-01-27T09:18:58.397Z,11.12
2019-01-27T09:19:58.382Z,11.56
2019-01-27T09:20:58.412Z,11.95
2019-01-27T09:21:58.374Z,12.70
2019-01-27T09:22:58.347Z,12.62
2019-01-27T09:23:58.343Z,12.71
2019-01-27T09:24:58.323Z,12.94
2019-01-27T09:25:58.314Z,12.95
2019-01-27T09:26:58.310Z,12.89
2019-01-27T09:27:58.397Z,13.60
2019-01-27T09:28:58.436Z,13.40
2019-01-27T09:29:58.280Z,13.47
2019-01-27T09:30:58.264Z,13.84
2019-01-27T09:31:58.255Z,14.09
2019-01-27T09:32:58.238Z,13.40
2019-01-27T09:33:58.247Z,13.42
2019-01-27T09:34:58.224Z,13.53
2019-01-27T09:35:58.315Z,14.03
2019-01-27T09:36:58.198Z,14.52
2019-01-27T09:37:58.202Z,15.08
2019-01-27T09:38:58.173Z,16.02
2019-01-27T09:39:58.183Z,16.17
2019-01-27T09:40:58.154Z,15.49
2019-01-27T09:41:58.152Z,15.88
2019-01-27T09:42:58.141Z,16.30
2019-01-27T09:43:58.120Z,15.74
2019-01-27T09:44:58.180Z,15.07
2019-01-27T09:46:05.587Z,15.93
2019-01-27T09:46:59.135Z,16.36
2019-01-27T09:47:58.180Z,16.62
2019-01-27T09:48:58.064Z,16.47
2019-01-27T09:49:58.058Z,16.10
2019-01-27T09:50:58.133Z,15.92
2019-01-27T09:51:58.151Z,15.10
2019-01-27T09:52:58.020Z,14.26
2019-01-27T09:53:58.013Z,14.51
2019-01-27T09:54:58.002Z,13.93
2019-01-27T09:55:57.991Z,12.99
2019-01-27T09:56:57.981Z,12.38
2019-01-27T09:57:57.985Z,11.73
2019-01-27T09:58:57.955Z,12.15
2019-01-27T09:59:57.949Z,12.11
2019-01-27T10:00:57.935Z,11.53
2019-01-27T10:01:57.927Z,11.45
2019-01-27T10:02:57.919Z,12.15
2019-01-27T10:03:57.920Z,12.19
2019-01-27T10:04:57.895Z,12.38
2019-01-27T10:05:57.889Z,11.81
2019-01-27T10:06:57.881Z,11.57
2019-01-27T10:07:57.857Z,11.33
2019-01-27T10:08:57.933Z,11.12
2019-01-27T10:09:57.862Z,10.97
2019-01-27T10:10:57.828Z,10.76
2019-01-27T10:11:57.838Z,10.77
2019-01-27T10:12:57.809Z,10.75
2019-01-27T10:13:57.791Z,10.70
2019-01-27T10:14:57.791Z,10.72
2019-01-27T10:15:57.806Z,10.76
2019-01-27T10:16:57.768Z,10.73
2019-01-27T10:17:57.758Z,10.63
2019-01-27T10:18:57.744Z,10.49
2019-01-27T10:19:57.732Z,10.61
2019-01-27T10:20:57.723Z,10.55
2019-01-27T10:21:57.729Z,10.47
2019-01-27T10:22:57.709Z,10.44
2019-01-27T10:23:57.751Z,10.35
2019-01-27T10:24:57.736Z,10.31
2019-01-27T10:25:57.669Z,10.32
2019-01-27T10:26:57.665Z,10.14
2019-01-27T10:27:57.753Z,10.18
2019-01-27T10:28:57.643Z,10.20
2019-01-27T10:29:57.627Z,10.11
2019-01-27T10:30:57.693Z,10.08
2019-01-27T10:31:57.602Z,9.99
2019-01-27T10:32:57.595Z,9.84
2019-01-27T10:33:57.603Z,9.70
2019-01-27T10:34:57.570Z,9.84
2019-01-27T10:35:57.570Z,9.80
2019-01-27T10:36:57.548Z,9.78
2019-01-27T10:37:57.541Z,9.63
2019-01-27T10:38:57.528Z,9.53
2019-01-27T10:39:57.528Z,9.60
2019-01-27T10:40:58.342Z,9.67
2019-01-27T10:41:57.490Z,9.66
2019-01-27T10:42:57.488Z,9.59
2019-01-27T10:43:57.477Z,9.48
2019-01-27T10:44:57.464Z,9.41
2019-01-27T10:45:57.472Z,9.44
2019-01-27T10:46:57.442Z,9.38
2019-01-27T10:47:57.434Z,9.19
2019-01-27T10:48:57.420Z,9.21
2019-01-27T10:49:57.452Z,9.17
2019-01-27T10:50:57.401Z,9.16
2019-01-27T10:51:57.463Z,9.37
2019-01-27T10:52:57.392Z,9.35
2019-01-27T10:53:57.366Z,9.08
2019-01-27T10:54:57.359Z,8.80
2019-01-27T10:55:57.346Z,8.79
2019-01-27T10:56:57.334Z,8.57
2019-01-27T10:57:57.426Z,8.54
2019-01-27T10:58:57.334Z,8.49
2019-01-27T10:59:57.304Z,8.49
2019-01-27T11:00:57.295Z,8.50
2019-01-27T11:01:57.288Z,8.32
2019-01-27T11:02:57.276Z,8.22
2019-01-27T11:03:57.291Z,8.09
2019-01-27T11:04:57.266Z,7.92
2019-01-27T11:05:57.261Z,7.89
2019-01-27T11:06:57.231Z,7.68
2019-01-27T11:07:57.226Z,7.58
2019-01-27T11:08:57.208Z,7.36
2019-01-27T11:09:57.398Z,7.31
2019-01-27T11:10:57.186Z,7.36
2019-01-27T11:11:57.177Z,7.33
2019-01-27T11:12:57.171Z,7.45
2019-01-27T11:13:57.152Z,7.52
2019-01-27T11:14:57.145Z,7.45
2019-01-27T11:15:57.197Z,7.59
2019-01-27T11:16:57.118Z,7.56
2019-01-27T11:17:57.113Z,7.63
2019-01-27T11:18:57.102Z,7.98
2019-01-27T11:19:57.093Z,7.86
2019-01-27T11:20:57.078Z,7.89
2019-01-27T11:21:57.116Z,7.92
2019-01-27T11:22:57.063Z,7.83
2019-01-27T11:23:57.049Z,7.86
2019-01-27T11:24:57.037Z,7.99
2019-01-27T11:26:00.726Z,8.10
2019-01-27T11:26:57.025Z,8.22
2019-01-27T11:27:57.049Z,8.17
2019-01-27T11:28:56.992Z,8.09
2019-01-27T11:29:57.016Z,8.17
2019-01-27T11:30:56.973Z,8.17
2019-01-27T11:31:56.961Z,8.19
2019-01-27T11:32:56.951Z,8.39
2019-01-27T11:33:57.055Z,8.49
2019-01-27T11:34:56.928Z,8.57
2019-01-27T11:35:56.919Z,8.72
2019-01-27T11:36:56.963Z,8.69
2019-01-27T11:37:56.897Z,8.83
2019-01-27T11:38:56.893Z,9.03
2019-01-27T11:39:56.928Z,9.05
2019-01-27T11:40:56.864Z,9.14
2019-01-27T11:41:56.880Z,9.12
2019-01-27T11:42:56.850Z,9.24
2019-01-27T11:43:56.832Z,9.39
2019-01-27T11:44:56.822Z,9.48
2019-01-27T11:45:56.867Z,9.44
2019-01-27T11:46:56.811Z,9.42
2019-01-27T11:47:56.803Z,9.42
2019-01-27T11:48:56.778Z,9.50
2019-01-27T11:49:56.985Z,9.42
2019-01-27T11:50:56.984Z,9.48
2019-01-27T11:51:56.853Z,9.47
2019-01-27T11:52:56.759Z,9.48
2019-01-27T11:53:56.726Z,9.52
2019-01-27T11:54:56.710Z,9.67
2019-01-27T11:55:56.710Z,9.64
2019-01-27T11:56:56.706Z,9.64
2019-01-27T11:57:56.786Z,9.38
2019-01-27T11:58:56.666Z,9.21
2019-01-27T11:59:56.659Z,9.24
2019-01-27T12:00:56.650Z,9.21
2019-01-27T12:01:56.640Z,9.26
2019-01-27T12:02:56.627Z,9.41
2019-01-27T12:03:56.673Z,9.62
2019-01-27T12:04:56.604Z,9.95
2019-01-27T12:05:56.598Z,10.18
2019-01-27T12:06:56.593Z,10.36
2019-01-27T12:07:56.582Z,10.52
2019-01-27T12:08:56.566Z,10.57
2019-01-27T12:09:56.604Z,10.61
2019-01-27T12:10:56.546Z,10.70
2019-01-27T12:11:56.592Z,10.87
2019-01-27T12:12:56.534Z,11.12
2019-01-27T12:13:56.519Z,11.12
2019-01-27T12:14:56.557Z,11.23
2019-01-27T12:15:56.553Z,11.26
2019-01-27T12:16:56.486Z,11.13
2019-01-27T12:17:56.472Z,10.90
2019-01-27T12:18:56.470Z,10.59
2019-01-27T12:19:56.447Z,10.38
2019-01-27T12:20:56.444Z,10.38
2019-01-27T12:21:56.511Z,10.18
2019-01-27T12:22:56.417Z,10.14
2019-01-27T12:23:56.407Z,10.31
2019-01-27T12:24:56.397Z,10.26
2019-01-27T12:25:56.384Z,10.23
2019-01-27T12:26:56.381Z,10.26
2019-01-27T12:27:56.410Z,10.23
2019-01-27T12:28:56.352Z,10.32
2019-01-27T12:29:56.346Z,10.33
2019-01-27T12:30:56.347Z,10.49
2019-01-27T12:31:56.321Z,10.55
2019-01-27T12:32:56.307Z,10.49
2019-01-27T12:33:56.356Z,10.33
2019-01-27T12:34:56.285Z,10.46
2019-01-27T12:35:56.355Z,10.46
2019-01-27T12:36:56.288Z,10.42
2019-01-27T12:37:56.250Z,10.42
2019-01-27T12:38:56.245Z,10.33
2019-01-27T12:39:56.284Z,10.31
2019-01-27T12:40:56.220Z,10.42
2019-01-27T12:41:56.222Z,10.32
2019-01-27T12:42:56.195Z,10.59
2019-01-27T12:43:56.191Z,10.83
2019-01-27T12:44:56.222Z,11.21
2019-01-27T12:45:56.217Z,11.38
2019-01-27T12:46:56.153Z,11.15
2019-01-27T12:47:56.150Z,11.46
2019-01-27T12:48:56.132Z,11.71
2019-01-27T12:49:56.121Z,11.95
2019-01-27T12:50:56.114Z,12.25
2019-01-27T12:51:56.156Z,12.45
2019-01-27T12:52:56.094Z,12.66
2019-01-27T12:53:56.076Z,12.88
2019-01-27T12:54:56.064Z,12.84
2019-01-27T12:55:56.085Z,12.83
2019-01-27T12:56:56.057Z,12.65
2019-01-27T12:57:56.103Z,12.51
2019-01-27T12:58:56.051Z,12.55
2019-01-27T12:59:56.027Z,12.31
2019-01-27T13:00:56.002Z,11.94
2019-01-27T13:01:55.988Z,11.57
2019-01-27T13:02:55.986Z,11.30
2019-01-27T13:03:56.002Z,11.06
2019-01-27T13:04:55.973Z,11.00
2019-01-27T13:05:55.941Z,10.91
2019-01-27T13:06:55.992Z,10.79
2019-01-27T13:07:55.941Z,10.70
2019-01-27T13:08:55.989Z,10.77
2019-01-27T13:09:55.944Z,10.61
2019-01-27T13:10:55.894Z,10.72
2019-01-27T13:11:55.883Z,10.58
2019-01-27T13:12:55.882Z,10.49